sensor_id;sensor_type;location;lat;lon;timestamp;P1;durP1;ratioP1;P2;durP2;ratioP2
80366;SDS011;70058;42.660;23.366;2023-05-29T00:02:14;13.27;;;7.15;;
80366;SDS011;70058;42.660;23.366;2023-05-29T00:04:40;12.38;;;6.85;;
80366;SDS011;70058;42.660;23.366;2023-05-29T00:07:05;11.60;;;7.07;;
80366;SDS011;70058;42.660;23.366;2023-05-29T00:09:31;10.55;;;6.15;;
80366;SDS011;70058;42.660;23.366;2023-05-29T00:11:57;12.43;;;6.97;;
80366;SDS011;70058;42.660;23.366;2023-05-29T00:14:22;12.57;;;7.22;;
80366;SDS011;70058;42.660;23.366;2023-05-29T00:16:49;12.38;;;6.03;;
80366;SDS011;70058;42.660;23.366;2023-05-29T00:19:15;14.77;;;6.18;;
80366;SDS011;70058;42.660;23.366;2023-05-29T00:21:42;13.40;;;5.88;;
80366;SDS011;70058;42.660;23.366;2023-05-29T00:24:08;12.07;;;6.35;;
80366;SDS011;70058;42.660;23.366;2023-05-29T00:26:34;13.82;;;6.35;;
80366;SDS011;70058;42.660;23.366;2023-05-29T00:29:00;10.38;;;5.53;;
80366;SDS011;70058;42.660;23.366;2023-05-29T00:31:25;10.18;;;5.53;;
80366;SDS011;70058;42.660;23.366;2023-05-29T00:33:51;11.32;;;5.38;;
80366;SDS011;70058;42.660;23.366;2023-05-29T00:36:17;9.63;;;5.07;;
80366;SDS011;70058;42.660;23.366;2023-05-29T00:38:43;10.02;;;5.10;;
80366;SDS011;70058;42.660;23.366;2023-05-29T00:41:13;10.00;;;5.20;;
80366;SDS011;70058;42.660;23.366;2023-05-29T00:43:40;12.93;;;5.50;;
80366;SDS011;70058;42.660;23.366;2023-05-29T00:46:06;9.73;;;5.35;;
80366;SDS011;70058;42.660;23.366;2023-05-29T00:48:32;10.48;;;5.72;;
80366;SDS011;70058;42.660;23.366;2023-05-29T00:50:58;12.93;;;5.88;;
80366;SDS011;70058;42.660;23.366;2023-05-29T00:53:24;9.80;;;5.65;;
80366;SDS011;70058;42.660;23.366;2023-05-29T00:55:51;9.07;;;5.65;;
80366;SDS011;70058;42.660;23.366;2023-05-29T00:58:17;13.00;;;6.38;;
80366;SDS011;70058;42.660;23.366;2023-05-29T01:00:43;11.43;;;6.43;;
80366;SDS011;70058;42.660;23.366;2023-05-29T01:03:09;13.18;;;6.82;;
80366;SDS011;70058;42.660;23.366;2023-05-29T01:05:39;13.48;;;6.97;;
80366;SDS011;70058;42.660;23.366;2023-05-29T01:08:06;12.18;;;6.70;;
80366;SDS011;70058;42.660;23.366;2023-05-29T01:10:32;11.13;;;5.85;;
80366;SDS011;70058;42.660;23.366;2023-05-29T01:15:46;10.90;;;6.18;;
80366;SDS011;70058;42.660;23.366;2023-05-29T01:18:24;11.38;;;6.82;;
80366;SDS011;70058;42.660;23.366;2023-05-29T01:21:06;12.48;;;5.95;;
80366;SDS011;70058;42.660;23.366;2023-05-29T01:29:07;15.30;;;6.63;;
80366;SDS011;70058;42.660;23.366;2023-05-29T01:31:35;13.95;;;6.95;;
80366;SDS011;70058;42.660;23.366;2023-05-29T01:34:03;10.27;;;6.22;;
80366;SDS011;70058;42.660;23.366;2023-05-29T01:36:29;10.18;;;6.50;;
80366;SDS011;70058;42.660;23.366;2023-05-29T01:38:56;13.90;;;7.28;;
80366;SDS011;70058;42.660;23.366;2023-05-29T01:41:23;14.20;;;7.32;;
80366;SDS011;70058;42.660;23.366;2023-05-29T01:43:50;11.57;;;6.53;;
80366;SDS011;70058;42.660;23.366;2023-05-29T01:46:16;12.27;;;6.97;;
80366;SDS011;70058;42.660;23.366;2023-05-29T01:48:43;12.75;;;6.95;;
80366;SDS011;70058;42.660;23.366;2023-05-29T01:51:10;14.05;;;6.65;;
80366;SDS011;70058;42.660;23.366;2023-05-29T01:53:40;12.23;;;7.00;;
80366;SDS011;70058;42.660;23.366;2023-05-29T01:56:07;12.82;;;6.95;;
80366;SDS011;70058;42.660;23.366;2023-05-29T01:58:34;11.93;;;7.10;;
80366;SDS011;70058;42.660;23.366;2023-05-29T02:01:01;11.73;;;6.55;;
80366;SDS011;70058;42.660;23.366;2023-05-29T02:03:28;10.95;;;6.72;;
80366;SDS011;70058;42.660;23.366;2023-05-29T02:05:56;11.65;;;6.57;;
80366;SDS011;70058;42.660;23.366;2023-05-29T02:08:22;14.95;;;7.88;;
80366;SDS011;70058;42.660;23.366;2023-05-29T02:10:48;14.63;;;7.35;;
80366;SDS011;70058;42.660;23.366;2023-05-29T02:13:14;13.75;;;7.45;;
80366;SDS011;70058;42.660;23.366;2023-05-29T02:15:39;15.38;;;7.40;;
80366;SDS011;70058;42.660;23.366;2023-05-29T02:18:07;16.80;;;6.82;;
80366;SDS011;70058;42.660;23.366;2023-05-29T02:20:38;11.45;;;6.80;;
80366;SDS011;70058;42.660;23.366;2023-05-29T02:23:04;17.60;;;7.57;;
80366;SDS011;70058;42.660;23.366;2023-05-29T02:25:29;11.88;;;6.70;;
80366;SDS011;70058;42.660;23.366;2023-05-29T02:27:55;14.00;;;6.88;;
80366;SDS011;70058;42.660;23.366;2023-05-29T02:30:21;12.77;;;6.40;;
80366;SDS011;70058;42.660;23.366;2023-05-29T02:32:47;14.93;;;7.00;;
80366;SDS011;70058;42.660;23.366;2023-05-29T02:35:12;13.32;;;7.03;;
80366;SDS011;70058;42.660;23.366;2023-05-29T02:37:40;13.20;;;6.93;;
80366;SDS011;70058;42.660;23.366;2023-05-29T02:40:06;13.13;;;7.35;;
80366;SDS011;70058;42.660;23.366;2023-05-29T02:42:33;14.48;;;6.80;;
80366;SDS011;70058;42.660;23.366;2023-05-29T02:44:59;12.23;;;6.63;;
80366;SDS011;70058;42.660;23.366;2023-05-29T02:47:25;14.60;;;7.65;;
80366;SDS011;70058;42.660;23.366;2023-05-29T02:49:51;13.07;;;7.07;;
80366;SDS011;70058;42.660;23.366;2023-05-29T02:52:16;14.63;;;7.07;;
80366;SDS011;70058;42.660;23.366;2023-05-29T02:54:42;11.05;;;6.90;;
80366;SDS011;70058;42.660;23.366;2023-05-29T02:57:08;13.60;;;7.30;;
80366;SDS011;70058;42.660;23.366;2023-05-29T02:59:34;12.60;;;7.05;;
80366;SDS011;70058;42.660;23.366;2023-05-29T03:02:00;20.45;;;6.95;;
80366;SDS011;70058;42.660;23.366;2023-05-29T03:04:26;14.05;;;7.10;;
80366;SDS011;70058;42.660;23.366;2023-05-29T03:06:52;17.33;;;6.95;;
80366;SDS011;70058;42.660;23.366;2023-05-29T03:09:19;17.52;;;7.88;;
80366;SDS011;70058;42.660;23.366;2023-05-29T03:11:45;12.43;;;6.85;;
80366;SDS011;70058;42.660;23.366;2023-05-29T03:14:12;12.40;;;6.68;;
80366;SDS011;70058;42.660;23.366;2023-05-29T03:16:39;13.82;;;6.95;;
80366;SDS011;70058;42.660;23.366;2023-05-29T03:19:05;18.55;;;7.22;;
80366;SDS011;70058;42.660;23.366;2023-05-29T03:21:32;14.85;;;7.05;;
80366;SDS011;70058;42.660;23.366;2023-05-29T03:23:58;17.25;;;7.93;;
80366;SDS011;70058;42.660;23.366;2023-05-29T03:26:24;15.88;;;7.70;;
80366;SDS011;70058;42.660;23.366;2023-05-29T03:28:50;16.70;;;7.70;;
80366;SDS011;70058;42.660;23.366;2023-05-29T03:31:16;22.05;;;7.97;;
80366;SDS011;70058;42.660;23.366;2023-05-29T03:33:42;13.63;;;7.80;;
80366;SDS011;70058;42.660;23.366;2023-05-29T03:36:07;16.75;;;7.60;;
80366;SDS011;70058;42.660;23.366;2023-05-29T03:38:36;23.83;;;8.05;;
80366;SDS011;70058;42.660;23.366;2023-05-29T03:41:02;17.65;;;7.43;;
80366;SDS011;70058;42.660;23.366;2023-05-29T03:43:28;21.20;;;7.80;;
80366;SDS011;70058;42.660;23.366;2023-05-29T03:45:53;16.33;;;7.63;;
80366;SDS011;70058;42.660;23.366;2023-05-29T03:48:19;14.98;;;7.47;;
80366;SDS011;70058;42.660;23.366;2023-05-29T03:50:45;14.73;;;7.40;;
80366;SDS011;70058;42.660;23.366;2023-05-29T03:53:11;21.70;;;9.48;;
80366;SDS011;70058;42.660;23.366;2023-05-29T03:55:37;16.73;;;9.55;;
80366;SDS011;70058;42.660;23.366;2023-05-29T03:58:03;18.35;;;9.70;;
80366;SDS011;70058;42.660;23.366;2023-05-29T04:00:28;22.88;;;8.98;;
80366;SDS011;70058;42.660;23.366;2023-05-29T04:02:55;18.17;;;9.10;;
80366;SDS011;70058;42.660;23.366;2023-05-29T04:05:21;17.95;;;8.30;;
80366;SDS011;70058;42.660;23.366;2023-05-29T04:07:46;17.70;;;8.55;;
80366;SDS011;70058;42.660;23.366;2023-05-29T04:10:13;18.27;;;8.48;;
80366;SDS011;70058;42.660;23.366;2023-05-29T04:12:39;18.38;;;8.02;;
80366;SDS011;70058;42.660;23.366;2023-05-29T04:15:05;15.75;;;7.88;;
80366;SDS011;70058;42.660;23.366;2023-05-29T04:17:31;20.60;;;9.25;;
80366;SDS011;70058;42.660;23.366;2023-05-29T04:19:57;20.33;;;9.45;;
80366;SDS011;70058;42.660;23.366;2023-05-29T04:22:22;17.77;;;9.70;;
80366;SDS011;70058;42.660;23.366;2023-05-29T04:24:49;19.77;;;9.40;;
80366;SDS011;70058;42.660;23.366;2023-05-29T04:27:15;16.80;;;9.48;;
80366;SDS011;70058;42.660;23.366;2023-05-29T04:29:42;22.95;;;10.48;;
80366;SDS011;70058;42.660;23.366;2023-05-29T04:32:08;21.00;;;9.45;;
80366;SDS011;70058;42.660;23.366;2023-05-29T04:34:36;18.55;;;9.68;;
80366;SDS011;70058;42.660;23.366;2023-05-29T04:37:06;20.15;;;9.32;;
80366;SDS011;70058;42.660;23.366;2023-05-29T04:39:33;20.48;;;9.30;;
80366;SDS011;70058;42.660;23.366;2023-05-29T04:41:59;18.90;;;9.18;;
80366;SDS011;70058;42.660;23.366;2023-05-29T04:44:25;21.63;;;10.82;;
80366;SDS011;70058;42.660;23.366;2023-05-29T04:46:52;17.63;;;9.10;;
80366;SDS011;70058;42.660;23.366;2023-05-29T04:49:18;15.57;;;8.50;;
80366;SDS011;70058;42.660;23.366;2023-05-29T04:51:46;19.52;;;9.63;;
80366;SDS011;70058;42.660;23.366;2023-05-29T04:54:12;22.23;;;9.15;;
80366;SDS011;70058;42.660;23.366;2023-05-29T04:56:38;17.85;;;8.80;;
80366;SDS011;70058;42.660;23.366;2023-05-29T04:59:05;22.90;;;8.80;;
80366;SDS011;70058;42.660;23.366;2023-05-29T05:01:32;17.90;;;8.75;;
80366;SDS011;70058;42.660;23.366;2023-05-29T05:04:00;16.58;;;8.55;;
80366;SDS011;70058;42.660;23.366;2023-05-29T05:06:26;20.80;;;8.77;;
80366;SDS011;70058;42.660;23.366;2023-05-29T05:08:53;14.77;;;8.77;;
80366;SDS011;70058;42.660;23.366;2023-05-29T05:11:19;18.05;;;8.10;;
80366;SDS011;70058;42.660;23.366;2023-05-29T05:13:46;21.13;;;8.65;;
80366;SDS011;70058;42.660;23.366;2023-05-29T05:16:20;16.02;;;7.80;;
80366;SDS011;70058;42.660;23.366;2023-05-29T05:21:16;22.48;;;8.82;;
80366;SDS011;70058;42.660;23.366;2023-05-29T05:23:43;26.35;;;9.75;;
80366;SDS011;70058;42.660;23.366;2023-05-29T05:26:09;16.63;;;8.55;;
80366;SDS011;70058;42.660;23.366;2023-05-29T05:28:35;16.95;;;8.73;;
80366;SDS011;70058;42.660;23.366;2023-05-29T05:31:01;19.20;;;8.32;;
80366;SDS011;70058;42.660;23.366;2023-05-29T05:33:27;17.08;;;8.15;;
80366;SDS011;70058;42.660;23.366;2023-05-29T05:35:54;19.85;;;8.10;;
80366;SDS011;70058;42.660;23.366;2023-05-29T05:38:20;17.98;;;9.93;;
80366;SDS011;70058;42.660;23.366;2023-05-29T05:40:46;18.58;;;8.20;;
80366;SDS011;70058;42.660;23.366;2023-05-29T05:43:12;19.75;;;8.98;;
80366;SDS011;70058;42.660;23.366;2023-05-29T05:45:38;20.27;;;9.07;;
80366;SDS011;70058;42.660;23.366;2023-05-29T05:48:07;14.45;;;7.93;;
80366;SDS011;70058;42.660;23.366;2023-05-29T05:50:33;16.75;;;8.55;;
80366;SDS011;70058;42.660;23.366;2023-05-29T05:53:00;15.60;;;7.20;;
80366;SDS011;70058;42.660;23.366;2023-05-29T05:55:26;13.23;;;5.93;;
80366;SDS011;70058;42.660;23.366;2023-05-29T05:57:53;11.40;;;6.70;;
80366;SDS011;70058;42.660;23.366;2023-05-29T06:00:19;13.85;;;5.80;;
80366;SDS011;70058;42.660;23.366;2023-05-29T06:02:46;13.65;;;5.80;;
80366;SDS011;70058;42.660;23.366;2023-05-29T06:05:18;10.02;;;5.22;;
80366;SDS011;70058;42.660;23.366;2023-05-29T06:07:44;13.93;;;5.10;;
80366;SDS011;70058;42.660;23.366;2023-05-29T06:10:19;8.50;;;4.82;;
80366;SDS011;70058;42.660;23.366;2023-05-29T06:12:45;8.65;;;3.72;;
80366;SDS011;70058;42.660;23.366;2023-05-29T06:15:11;8.65;;;3.75;;
80366;SDS011;70058;42.660;23.366;2023-05-29T06:17:37;11.25;;;3.58;;
80366;SDS011;70058;42.660;23.366;2023-05-29T06:20:04;7.22;;;3.20;;
80366;SDS011;70058;42.660;23.366;2023-05-29T06:22:35;10.80;;;3.22;;
80366;SDS011;70058;42.660;23.366;2023-05-29T06:25:05;6.93;;;3.22;;
80366;SDS011;70058;42.660;23.366;2023-05-29T06:27:31;7.20;;;3.60;;
80366;SDS011;70058;42.660;23.366;2023-05-29T06:29:57;6.97;;;3.50;;
80366;SDS011;70058;42.660;23.366;2023-05-29T06:32:23;11.00;;;4.18;;
80366;SDS011;70058;42.660;23.366;2023-05-29T06:34:48;10.32;;;3.95;;
80366;SDS011;70058;42.660;23.366;2023-05-29T06:37:14;10.00;;;3.95;;
80366;SDS011;70058;42.660;23.366;2023-05-29T06:39:44;9.65;;;3.75;;
80366;SDS011;70058;42.660;23.366;2023-05-29T06:42:10;7.40;;;3.47;;
80366;SDS011;70058;42.660;23.366;2023-05-29T06:44:36;7.63;;;3.35;;
80366;SDS011;70058;42.660;23.366;2023-05-29T06:47:01;7.82;;;3.80;;
80366;SDS011;70058;42.660;23.366;2023-05-29T06:49:27;11.07;;;3.35;;
80366;SDS011;70058;42.660;23.366;2023-05-29T06:51:55;9.02;;;3.40;;
80366;SDS011;70058;42.660;23.366;2023-05-29T06:54:25;6.85;;;2.85;;
80366;SDS011;70058;42.660;23.366;2023-05-29T06:56:50;11.07;;;3.90;;
80366;SDS011;70058;42.660;23.366;2023-05-29T06:59:19;6.75;;;3.35;;
80366;SDS011;70058;42.660;23.366;2023-05-29T07:01:48;8.40;;;3.42;;
80366;SDS011;70058;42.660;23.366;2023-05-29T07:04:13;6.70;;;2.85;;
80366;SDS011;70058;42.660;23.366;2023-05-29T07:06:39;10.75;;;3.35;;
80366;SDS011;70058;42.660;23.366;2023-05-29T07:09:05;9.00;;;2.95;;
80366;SDS011;70058;42.660;23.366;2023-05-29T07:11:41;12.45;;;3.05;;
80366;SDS011;70058;42.660;23.366;2023-05-29T07:14:07;6.28;;;2.58;;
80366;SDS011;70058;42.660;23.366;2023-05-29T07:16:33;4.25;;;1.75;;
80366;SDS011;70058;42.660;23.366;2023-05-29T07:18:58;12.93;;;6.68;;
80366;SDS011;70058;42.660;23.366;2023-05-29T07:21:25;8.25;;;3.30;;
80366;SDS011;70058;42.660;23.366;2023-05-29T07:23:54;7.72;;;4.97;;
80366;SDS011;70058;42.660;23.366;2023-05-29T07:26:22;10.05;;;6.35;;
80366;SDS011;70058;42.660;23.366;2023-05-29T07:28:48;4.55;;;2.20;;
80366;SDS011;70058;42.660;23.366;2023-05-29T07:31:15;7.03;;;2.60;;
80366;SDS011;70058;42.660;23.366;2023-05-29T07:33:41;8.57;;;3.85;;
80366;SDS011;70058;42.660;23.366;2023-05-29T07:36:07;5.47;;;1.90;;
80366;SDS011;70058;42.660;23.366;2023-05-29T07:38:32;5.13;;;1.70;;
80366;SDS011;70058;42.660;23.366;2023-05-29T07:40:58;6.47;;;2.00;;
80366;SDS011;70058;42.660;23.366;2023-05-29T07:43:24;11.73;;;2.75;;
80366;SDS011;70058;42.660;23.366;2023-05-29T07:45:50;7.18;;;1.77;;
80366;SDS011;70058;42.660;23.366;2023-05-29T07:48:15;4.18;;;1.83;;
80366;SDS011;70058;42.660;23.366;2023-05-29T07:50:41;4.38;;;1.92;;
80366;SDS011;70058;42.660;23.366;2023-05-29T07:53:11;7.03;;;2.13;;
80366;SDS011;70058;42.660;23.366;2023-05-29T07:55:37;4.85;;;1.40;;
80366;SDS011;70058;42.660;23.366;2023-05-29T07:58:03;8.50;;;2.00;;
80366;SDS011;70058;42.660;23.366;2023-05-29T08:00:31;6.55;;;2.20;;
80366;SDS011;70058;42.660;23.366;2023-05-29T08:02:58;5.55;;;2.05;;
80366;SDS011;70058;42.660;23.366;2023-05-29T08:05:23;8.82;;;1.80;;
80366;SDS011;70058;42.660;23.366;2023-05-29T08:07:50;6.13;;;1.70;;
80366;SDS011;70058;42.660;23.366;2023-05-29T08:10:16;3.55;;;1.60;;
80366;SDS011;70058;42.660;23.366;2023-05-29T08:12:41;5.60;;;1.88;;
80366;SDS011;70058;42.660;23.366;2023-05-29T08:15:07;8.38;;;2.20;;
80366;SDS011;70058;42.660;23.366;2023-05-29T08:17:34;7.72;;;2.30;;
80366;SDS011;70058;42.660;23.366;2023-05-29T08:20:03;4.43;;;1.92;;
80366;SDS011;70058;42.660;23.366;2023-05-29T08:22:32;4.18;;;1.98;;
80366;SDS011;70058;42.660;23.366;2023-05-29T08:24:59;4.18;;;1.77;;
80366;SDS011;70058;42.660;23.366;2023-05-29T08:27:26;8.55;;;2.00;;
80366;SDS011;70058;42.660;23.366;2023-05-29T08:29:53;6.00;;;2.10;;
80366;SDS011;70058;42.660;23.366;2023-05-29T08:32:20;8.15;;;2.15;;
80366;SDS011;70058;42.660;23.366;2023-05-29T08:34:49;4.50;;;1.90;;
80366;SDS011;70058;42.660;23.366;2023-05-29T08:37:16;3.83;;;1.80;;
80366;SDS011;70058;42.660;23.366;2023-05-29T08:39:42;7.05;;;1.70;;
80366;SDS011;70058;42.660;23.366;2023-05-29T08:42:10;6.70;;;1.80;;
80366;SDS011;70058;42.660;23.366;2023-05-29T08:44:40;4.35;;;1.50;;
80366;SDS011;70058;42.660;23.366;2023-05-29T08:47:09;4.85;;;1.77;;
80366;SDS011;70058;42.660;23.366;2023-05-29T08:49:41;8.68;;;1.63;;
80366;SDS011;70058;42.660;23.366;2023-05-29T08:52:13;3.83;;;1.67;;
80366;SDS011;70058;42.660;23.366;2023-05-29T08:54:55;6.85;;;1.85;;
80366;SDS011;70058;42.660;23.366;2023-05-29T08:57:22;4.85;;;1.98;;
80366;SDS011;70058;42.660;23.366;2023-05-29T08:59:51;5.53;;;1.70;;
80366;SDS011;70058;42.660;23.366;2023-05-29T09:02:19;4.97;;;2.03;;
80366;SDS011;70058;42.660;23.366;2023-05-29T09:04:45;3.65;;;1.67;;
80366;SDS011;70058;42.660;23.366;2023-05-29T09:07:14;5.43;;;1.92;;
80366;SDS011;70058;42.660;23.366;2023-05-29T09:09:41;7.05;;;2.13;;
80366;SDS011;70058;42.660;23.366;2023-05-29T09:12:07;5.50;;;2.00;;
80366;SDS011;70058;42.660;23.366;2023-05-29T09:14:38;5.82;;;1.70;;
80366;SDS011;70058;42.660;23.366;2023-05-29T09:17:08;6.30;;;2.00;;
80366;SDS011;70058;42.660;23.366;2023-05-29T09:19:35;5.53;;;1.63;;
80366;SDS011;70058;42.660;23.366;2023-05-29T09:22:05;5.18;;;2.03;;
80366;SDS011;70058;42.660;23.366;2023-05-29T09:24:41;6.57;;;2.78;;
80366;SDS011;70058;42.660;23.366;2023-05-29T09:27:08;6.38;;;2.40;;
80366;SDS011;70058;42.660;23.366;2023-05-29T09:29:38;5.50;;;2.67;;
80366;SDS011;70058;42.660;23.366;2023-05-29T09:32:08;5.43;;;2.35;;
80366;SDS011;70058;42.660;23.366;2023-05-29T09:34:47;6.93;;;2.35;;
80366;SDS011;70058;42.660;23.366;2023-05-29T09:37:18;6.88;;;2.55;;
80366;SDS011;70058;42.660;23.366;2023-05-29T09:39:48;7.03;;;2.28;;
80366;SDS011;70058;42.660;23.366;2023-05-29T09:42:15;6.25;;;2.40;;
80366;SDS011;70058;42.660;23.366;2023-05-29T09:44:44;6.47;;;2.40;;
80366;SDS011;70058;42.660;23.366;2023-05-29T09:47:17;5.18;;;2.30;;
80366;SDS011;70058;42.660;23.366;2023-05-29T09:49:45;5.05;;;2.08;;
80366;SDS011;70058;42.660;23.366;2023-05-29T09:52:15;6.75;;;2.35;;
80366;SDS011;70058;42.660;23.366;2023-05-29T09:54:47;4.78;;;2.40;;
80366;SDS011;70058;42.660;23.366;2023-05-29T09:57:17;6.25;;;2.50;;
80366;SDS011;70058;42.660;23.366;2023-05-29T09:59:43;5.80;;;2.42;;
80366;SDS011;70058;42.660;23.366;2023-05-29T10:02:19;7.13;;;2.75;;
80366;SDS011;70058;42.660;23.366;2023-05-29T10:04:45;5.90;;;2.67;;
80366;SDS011;70058;42.660;23.366;2023-05-29T10:08:12;8.07;;;2.97;;
80366;SDS011;70058;42.660;23.366;2023-05-29T10:10:14;6.20;;;2.60;;
80366;SDS011;70058;42.660;23.366;2023-05-29T10:12:49;5.53;;;2.63;;
80366;SDS011;70058;42.660;23.366;2023-05-29T10:15:16;7.27;;;2.83;;
80366;SDS011;70058;42.660;23.366;2023-05-29T10:17:53;8.13;;;2.78;;
80366;SDS011;70058;42.660;23.366;2023-05-29T10:20:35;7.55;;;2.30;;
80366;SDS011;70058;42.660;23.366;2023-05-29T10:23:01;5.82;;;2.55;;
80366;SDS011;70058;42.660;23.366;2023-05-29T10:25:29;6.10;;;2.70;;
80366;SDS011;70058;42.660;23.366;2023-05-29T10:27:57;15.35;;;2.80;;
80366;SDS011;70058;42.660;23.366;2023-05-29T10:30:27;7.80;;;2.60;;
80366;SDS011;70058;42.660;23.366;2023-05-29T10:33:05;7.78;;;3.53;;
80366;SDS011;70058;42.660;23.366;2023-05-29T10:35:48;6.65;;;3.58;;
80366;SDS011;70058;42.660;23.366;2023-05-29T10:38:29;7.65;;;2.55;;
80366;SDS011;70058;42.660;23.366;2023-05-29T10:40:55;4.93;;;2.42;;
80366;SDS011;70058;42.660;23.366;2023-05-29T10:43:32;6.68;;;2.70;;
80366;SDS011;70058;42.660;23.366;2023-05-29T10:45:59;7.45;;;2.70;;
80366;SDS011;70058;42.660;23.366;2023-05-29T10:48:36;6.60;;;2.65;;
80366;SDS011;70058;42.660;23.366;2023-05-29T10:51:05;6.47;;;3.10;;
80366;SDS011;70058;42.660;23.366;2023-05-29T10:53:32;8.52;;;3.20;;
80366;SDS011;70058;42.660;23.366;2023-05-29T10:55:59;5.45;;;2.60;;
80366;SDS011;70058;42.660;23.366;2023-05-29T10:58:31;11.17;;;2.80;;
80366;SDS011;70058;42.660;23.366;2023-05-29T11:01:00;7.65;;;3.13;;
80366;SDS011;70058;42.660;23.366;2023-05-29T11:03:30;5.82;;;2.50;;
80366;SDS011;70058;42.660;23.366;2023-05-29T11:06:00;8.95;;;2.85;;
80366;SDS011;70058;42.660;23.366;2023-05-29T11:08:55;8.48;;;3.03;;
80366;SDS011;70058;42.660;23.366;2023-05-29T11:16:43;4.80;;;2.15;;
80366;SDS011;70058;42.660;23.366;2023-05-29T11:19:17;4.97;;;2.60;;
80366;SDS011;70058;42.660;23.366;2023-05-29T11:24:31;5.53;;;2.47;;
80366;SDS011;70058;42.660;23.366;2023-05-29T11:26:58;7.20;;;3.00;;
80366;SDS011;70058;42.660;23.366;2023-05-29T11:29:31;9.07;;;2.90;;
80366;SDS011;70058;42.660;23.366;2023-05-29T11:32:04;5.75;;;2.50;;
80366;SDS011;70058;42.660;23.366;2023-05-29T11:34:35;6.03;;;2.45;;
80366;SDS011;70058;42.660;23.366;2023-05-29T11:37:05;8.80;;;2.90;;
80366;SDS011;70058;42.660;23.366;2023-05-29T11:39:38;7.43;;;2.60;;
80366;SDS011;70058;42.660;23.366;2023-05-29T11:42:09;5.30;;;2.60;;
80366;SDS011;70058;42.660;23.366;2023-05-29T11:44:36;5.75;;;2.50;;
80366;SDS011;70058;42.660;23.366;2023-05-29T11:47:06;7.05;;;2.80;;
80366;SDS011;70058;42.660;23.366;2023-05-29T11:49:33;13.75;;;3.28;;
80366;SDS011;70058;42.660;23.366;2023-05-29T11:52:09;9.32;;;3.15;;
80366;SDS011;70058;42.660;23.366;2023-05-29T11:54:36;10.52;;;3.22;;
80366;SDS011;70058;42.660;23.366;2023-05-29T11:57:02;11.80;;;3.95;;
80366;SDS011;70058;42.660;23.366;2023-05-29T11:59:34;9.95;;;3.17;;
80366;SDS011;70058;42.660;23.366;2023-05-29T12:02:07;7.50;;;3.10;;
80366;SDS011;70058;42.660;23.366;2023-05-29T12:04:32;10.23;;;3.40;;
80366;SDS011;70058;42.660;23.366;2023-05-29T12:06:59;9.65;;;3.58;;
80366;SDS011;70058;42.660;23.366;2023-05-29T12:09:26;10.27;;;3.22;;
80366;SDS011;70058;42.660;23.366;2023-05-29T12:12:03;8.70;;;3.28;;
80366;SDS011;70058;42.660;23.366;2023-05-29T12:14:30;10.52;;;3.60;;
80366;SDS011;70058;42.660;23.366;2023-05-29T12:16:56;67.28;;;7.53;;
80366;SDS011;70058;42.660;23.366;2023-05-29T12:19:26;1.23;;;0.63;;
80366;SDS011;70058;42.660;23.366;2023-05-29T12:21:52;0.85;;;0.43;;
80366;SDS011;70058;42.660;23.366;2023-05-29T12:24:18;0.17;;;0.15;;
80366;SDS011;70058;42.660;23.366;2023-05-29T12:26:44;2.08;;;0.43;;
80366;SDS011;70058;42.660;23.366;2023-05-29T12:29:12;1.40;;;0.88;;
80366;SDS011;70058;42.660;23.366;2023-05-29T12:31:38;0.10;;;0.10;;
80366;SDS011;70058;42.660;23.366;2023-05-29T12:34:10;1.17;;;0.25;;
80366;SDS011;70058;42.660;23.366;2023-05-29T12:36:43;0.17;;;0.17;;
80366;SDS011;70058;42.660;23.366;2023-05-29T12:39:09;0.47;;;0.30;;
80366;SDS011;70058;42.660;23.366;2023-05-29T12:41:36;1.98;;;1.13;;
80366;SDS011;70058;42.660;23.366;2023-05-29T12:44:04;3.03;;;0.50;;
80366;SDS011;70058;42.660;23.366;2023-05-29T12:46:41;0.10;;;0.10;;
80366;SDS011;70058;42.660;23.366;2023-05-29T12:49:20;0.00;;;0.00;;
80366;SDS011;70058;42.660;23.366;2023-05-29T12:51:46;0.15;;;0.08;;
80366;SDS011;70058;42.660;23.366;2023-05-29T12:54:16;0.25;;;0.25;;
80366;SDS011;70058;42.660;23.366;2023-05-29T12:56:42;0.65;;;0.65;;
80366;SDS011;70058;42.660;23.366;2023-05-29T12:59:10;0.10;;;0.10;;
80366;SDS011;70058;42.660;23.366;2023-05-29T13:01:40;0.65;;;0.50;;
80366;SDS011;70058;42.660;23.366;2023-05-29T13:04:06;0.93;;;0.65;;
80366;SDS011;70058;42.660;23.366;2023-05-29T13:06:37;1.92;;;1.30;;
80366;SDS011;70058;42.660;23.366;2023-05-29T13:09:03;0.38;;;0.32;;
80366;SDS011;70058;42.660;23.366;2023-05-29T13:11:33;1.00;;;0.52;;
80366;SDS011;70058;42.660;23.366;2023-05-29T13:13:59;1.23;;;0.68;;
80366;SDS011;70058;42.660;23.366;2023-05-29T13:16:28;4.82;;;1.38;;
80366;SDS011;70058;42.660;23.366;2023-05-29T13:18:55;1.67;;;0.63;;
80366;SDS011;70058;42.660;23.366;2023-05-29T13:21:21;0.82;;;0.50;;
80366;SDS011;70058;42.660;23.366;2023-05-29T13:23:47;1.45;;;0.68;;
80366;SDS011;70058;42.660;23.366;2023-05-29T13:26:13;1.67;;;0.93;;
80366;SDS011;70058;42.660;23.366;2023-05-29T13:28:39;9.25;;;0.90;;
80366;SDS011;70058;42.660;23.366;2023-05-29T13:31:05;0.55;;;0.30;;
80366;SDS011;70058;42.660;23.366;2023-05-29T13:33:31;0.52;;;0.52;;
80366;SDS011;70058;42.660;23.366;2023-05-29T13:35:57;0.47;;;0.38;;
80366;SDS011;70058;42.660;23.366;2023-05-29T13:38:23;0.73;;;0.25;;
80366;SDS011;70058;42.660;23.366;2023-05-29T13:40:49;0.10;;;0.10;;
80366;SDS011;70058;42.660;23.366;2023-05-29T13:43:15;0.30;;;0.20;;
80366;SDS011;70058;42.660;23.366;2023-05-29T13:45:41;2.72;;;1.35;;
80366;SDS011;70058;42.660;23.366;2023-05-29T13:48:07;0.20;;;0.20;;
80366;SDS011;70058;42.660;23.366;2023-05-29T13:50:33;0.05;;;0.05;;
80366;SDS011;70058;42.660;23.366;2023-05-29T13:53:01;0.32;;;0.32;;
80366;SDS011;70058;42.660;23.366;2023-05-29T13:55:27;0.13;;;0.13;;
80366;SDS011;70058;42.660;23.366;2023-05-29T13:57:53;0.50;;;0.50;;
80366;SDS011;70058;42.660;23.366;2023-05-29T14:00:18;0.13;;;0.13;;
80366;SDS011;70058;42.660;23.366;2023-05-29T14:02:44;0.10;;;0.10;;
80366;SDS011;70058;42.660;23.366;2023-05-29T14:05:10;0.25;;;0.25;;
80366;SDS011;70058;42.660;23.366;2023-05-29T14:07:36;6.13;;;2.40;;
80366;SDS011;70058;42.660;23.366;2023-05-29T14:10:02;0.20;;;0.20;;
80366;SDS011;70058;42.660;23.366;2023-05-29T14:12:31;0.10;;;0.10;;
80366;SDS011;70058;42.660;23.366;2023-05-29T14:15:01;0.10;;;0.10;;
80366;SDS011;70058;42.660;23.366;2023-05-29T14:17:27;0.05;;;0.05;;
80366;SDS011;70058;42.660;23.366;2023-05-29T14:19:53;0.40;;;0.40;;
80366;SDS011;70058;42.660;23.366;2023-05-29T14:22:20;0.57;;;0.45;;
80366;SDS011;70058;42.660;23.366;2023-05-29T14:24:45;4.85;;;0.30;;
80366;SDS011;70058;42.660;23.366;2023-05-29T14:27:12;1.75;;;0.47;;
80366;SDS011;70058;42.660;23.366;2023-05-29T14:29:38;0.55;;;0.30;;
80366;SDS011;70058;42.660;23.366;2023-05-29T14:32:06;0.10;;;0.10;;
80366;SDS011;70058;42.660;23.366;2023-05-29T14:34:32;0.20;;;0.20;;
80366;SDS011;70058;42.660;23.366;2023-05-29T14:37:01;0.00;;;0.00;;
80366;SDS011;70058;42.660;23.366;2023-05-29T14:39:27;0.77;;;0.77;;
80366;SDS011;70058;42.660;23.366;2023-05-29T14:41:52;1.92;;;0.38;;
80366;SDS011;70058;42.660;23.366;2023-05-29T14:44:18;0.10;;;0.10;;
80366;SDS011;70058;42.660;23.366;2023-05-29T14:46:45;0.10;;;0.10;;
80366;SDS011;70058;42.660;23.366;2023-05-29T14:49:11;0.35;;;0.35;;
80366;SDS011;70058;42.660;23.366;2023-05-29T14:51:36;0.32;;;0.20;;